Time;durP1;ratioP1;P1;durP2;ratioP2;P2;SDS_P1;SDS_P2;PMS_P1;PMS_P2;Temp;Humidity;BMP_temperature;BMP_pressure;BME280_temperature;BME280_humidity;BME280_pressure;Samples;Min_cycle;Max_cycle;Signal;HPM_P1;HPM_P2
2023/03/19 00:00:29;;;;;;;;;;;;;;;20.59;48.39;100694.09;2390894;74;22437;-77
2023/03/19 00:03:33;;;;;;;;;;;;;;;20.58;48.35;100681.17;2391327;73;22508;-77
2023/03/19 00:06:36;;;;;;;;;;;;;;;20.57;48.33;100688.90;2391503;74;22383;-78
2023/03/19 00:09:38;;;;;;;;;;;;;;;20.56;48.35;100680.53;2390907;74;50778;-76
2023/03/19 00:12:39;;;;;;;;;;;;;;;20.53;48.39;100679.55;2355169;74;51459;-77
2023/03/19 00:15:44;;;;;;;;;;;;;;;20.50;48.48;100681.77;2352131;74;50674;-78
2023/03/19 00:18:46;;;;;;;;;;;;;;;20.48;48.50;100683.33;2381707;74;22362;-77
2023/03/19 00:21:48;;;;;;;;;;;;;;;20.45;48.58;100682.38;2363849;74;50275;-78
2023/03/19 00:24:52;;;;;;;;;;;;;;;20.42;48.67;100680.91;2315341;75;50443;-77
2023/03/19 00:27:54;;;;;;;;;;;;;;;20.43;48.69;100683.91;2349647;75;52276;-75
2023/03/19 00:30:57;;;;;;;;;;;;;;;20.52;48.61;100677.04;2348966;74;50749;-75
2023/03/19 00:34:00;;;;;;;;;;;;;;;20.55;48.54;100676.19;2348096;74;50865;-77
2023/03/19 00:37:03;;;;;;;;;;;;;;;20.60;48.42;100680.47;2349768;75;50871;-78
2023/03/19 00:40:08;;;;;;;;;;;;;;;20.57;48.44;100675.45;2315049;75;51235;-77
2023/03/19 00:43:11;;;;;;;;;;;;;;;20.58;48.43;100679.00;2316101;75;22442;-78
2023/03/19 00:46:15;;;;;;;;;;;;;;;20.54;48.50;100683.06;2357981;74;51599;-77
2023/03/19 00:49:19;;;;;;;;;;;;;;;20.51;48.55;100677.56;2352942;74;51452;-76
2023/03/19 00:52:21;;;;;;;;;;;;;;;20.47;48.68;100676.27;2354159;74;51512;-76
2023/03/19 00:55:26;;;;;;;;;;;;;;;20.46;48.67;100684.03;2327661;74;51062;-77
2023/03/19 00:58:27;;;;;;;;;;;;;;;20.42;48.80;100679.57;2359021;74;50516;-77
2023/03/19 01:05:09;;;;;;;;;;;;;;;20.51;48.77;100691.52;2349446;75;23275;-77
2023/03/19 01:08:12;;;;;;;;;;;;;;;20.55;48.66;100684.74;2348934;75;23366;-78
2023/03/19 01:11:16;;;;;;;;;;;;;;;20.57;48.58;100695.62;2315895;75;23304;-77
2023/03/19 01:14:18;;;;;;;;;;;;;;;20.57;48.52;100691.59;2350933;74;51559;-77
2023/03/19 01:17:21;;;;;;;;;;;;;;;20.58;48.51;100688.41;2316956;75;50991;-77
2023/03/19 01:20:24;;;;;;;;;;;;;;;20.56;48.55;100692.62;2349705;75;51555;-78
2023/03/19 01:23:29;;;;;;;;;;;;;;;20.52;48.62;100692.65;2349800;75;52307;-76
2023/03/19 01:26:33;;;;;;;;;;;;;;;20.51;48.68;100694.20;2350215;75;22304;-78
2023/03/19 01:29:42;;;;;;;;;;;;;;;20.46;48.75;100692.09;2379819;74;51486;-77
2023/03/19 01:32:43;;;;;;;;;;;;;;;20.43;48.83;100691.97;2391091;74;22986;-77
2023/03/19 01:35:49;;;;;;;;;;;;;;;20.43;48.91;100693.84;2390807;74;22334;-76
2023/03/19 01:38:56;;;;;;;;;;;;;;;20.47;48.88;100692.92;2391056;74;51498;-76
2023/03/19 01:41:59;;;;;;;;;;;;;;;20.52;48.79;100695.34;2390428;74;50480;-77
2023/03/19 01:45:03;;;;;;;;;;;;;;;20.62;48.60;100691.00;2383454;73;51523;-77
2023/03/19 01:48:07;;;;;;;;;;;;;;;20.61;48.53;100690.18;2349576;75;50450;-76
2023/03/19 01:51:10;;;;;;;;;;;;;;;20.62;48.50;100694.52;2349633;75;50034;-76
2023/03/19 01:54:15;;;;;;;;;;;;;;;20.63;48.46;100701.58;2349741;75;51669;-76
2023/03/19 01:57:22;;;;;;;;;;;;;;;20.60;48.50;100699.28;2349962;75;22460;-77
2023/03/19 02:00:24;;;;;;;;;;;;;;;20.57;48.59;100693.45;2349153;75;22582;-78
2023/03/19 02:03:26;;;;;;;;;;;;;;;20.53;48.66;100701.05;2314763;75;51621;-77
2023/03/19 02:06:29;;;;;;;;;;;;;;;20.48;48.77;100696.77;2341504;75;53172;-77
2023/03/19 02:09:31;;;;;;;;;;;;;;;20.45;48.83;100694.48;2314717;75;51641;-77
2023/03/19 02:12:35;;;;;;;;;;;;;;;20.45;48.88;100689.10;2315314;75;50394;-77
2023/03/19 02:15:41;;;;;;;;;;;;;;;20.50;48.83;100692.04;2319250;75;50803;-77
2023/03/19 02:18:42;;;;;;;;;;;;;;;20.56;48.67;100685.91;2349879;74;22212;-78
2023/03/19 02:21:43;;;;;;;;;;;;;;;20.59;48.57;100692.23;2349858;75;51415;-77
2023/03/19 02:24:53;;;;;;;;;;;;;;;20.60;48.50;100682.30;2349606;75;50376;-78
2023/03/19 02:27:57;;;;;;;;;;;;;;;20.60;48.45;100688.53;2347808;75;22337;-77
2023/03/19 02:31:00;;;;;;;;;;;;;;;20.57;48.46;100683.52;2340101;75;51874;-76
2023/03/19 02:34:06;;;;;;;;;;;;;;;20.56;48.48;100679.18;2350049;75;22381;-77
2023/03/19 02:37:16;;;;;;;;;;;;;;;20.51;48.56;100684.28;2349677;75;51617;-77
2023/03/19 02:40:30;;;;;;;;;;;;;;;20.48;48.61;100681.98;2349727;75;50091;-79
2023/03/19 02:43:33;;;;;;;;;;;;;;;20.45;48.69;100685.90;2340306;75;52451;-79
2023/03/19 02:46:34;;;;;;;;;;;;;;;20.45;48.78;100685.07;2340129;74;49995;-79
2023/03/19 02:49:37;;;;;;;;;;;;;;;20.53;48.71;100684.92;2390340;74;51449;-79
2023/03/19 02:52:40;;;;;;;;;;;;;;;20.54;48.64;100683.92;2391339;73;50721;-79
2023/03/19 02:55:43;;;;;;;;;;;;;;;20.61;48.50;100679.42;2355110;74;51363;-78
2023/03/19 02:58:46;;;;;;;;;;;;;;;20.64;48.34;100681.72;2387442;74;23220;-79
2023/03/19 03:01:50;;;;;;;;;;;;;;;20.64;48.33;100678.20;2350082;75;50266;-78
2023/03/19 03:04:51;;;;;;;;;;;;;;;20.62;48.36;100682.94;2350673;75;22282;-79
2023/03/19 03:07:53;;;;;;;;;;;;;;;20.60;48.36;100677.78;2349886;75;51508;-78
2023/03/19 03:10:57;;;;;;;;;;;;;;;20.56;48.44;100680.53;2313878;75;52359;-78
2023/03/19 03:14:06;;;;;;;;;;;;;;;20.53;48.54;100678.72;2350266;75;22357;-79
2023/03/19 03:17:08;;;;;;;;;;;;;;;20.52;48.58;100679.21;2353117;74;50503;-79
2023/03/19 03:20:11;;;;;;;;;;;;;;;20.47;48.70;100679.48;2349710;75;50657;-79
2023/03/19 03:23:13;;;;;;;;;;;;;;;20.46;48.80;100677.31;2364317;73;50798;-79
2023/03/19 03:29:56;;;;;;;;;;;;;;;20.57;48.61;100683.52;2390483;74;21788;-79
2023/03/19 03:32:57;;;;;;;;;;;;;;;20.60;48.53;100683.16;2392261;73;22233;-79
2023/03/19 03:35:59;;;;;;;;;;;;;;;20.61;48.50;100687.49;2328955;74;50233;-79
2023/03/19 03:39:05;;;;;;;;;;;;;;;20.61;48.50;100692.87;2392096;74;50305;-79
2023/03/19 03:42:07;;;;;;;;;;;;;;;20.60;48.48;100688.53;2391782;74;21945;-79
2023/03/19 03:45:11;;;;;;;;;;;;;;;20.55;48.56;100701.73;2354999;74;51329;-79
2023/03/19 03:48:14;;;;;;;;;;;;;;;20.52;48.66;100720.05;2354758;74;51176;-79
2023/03/19 03:51:19;;;;;;;;;;;;;;;20.47;48.74;100739.44;2386247;74;50686;-79
2023/03/19 03:54:24;;;;;;;;;;;;;;;20.46;48.78;100731.07;2375278;74;22362;-79
2023/03/19 03:57:26;;;;;;;;;;;;;;;20.45;48.88;100729.42;2391039;74;22343;-79
2023/03/19 04:00:28;;;;;;;;;;;;;;;20.51;48.79;100732.66;2354123;73;49961;-79
2023/03/19 04:03:31;;;;;;;;;;;;;;;20.58;48.63;100730.08;2343012;74;23172;-79
2023/03/19 04:06:34;;;;;;;;;;;;;;;20.64;48.53;100734.66;2355429;74;50241;-78
2023/03/19 04:13:16;;;;;;;;;;;;;;;20.68;48.37;100725.69;2390877;74;22315;-79
2023/03/19 04:16:20;;;;;;;;;;;;;;;20.62;48.45;100733.50;2391322;73;51586;-79
2023/03/19 04:19:26;;;;;;;;;;;;;;;20.62;48.45;100744.25;2391053;74;51555;-79
2023/03/19 04:22:29;;;;;;;;;;;;;;;20.56;48.56;100738.33;2389596;74;50033;-79
2023/03/19 04:25:31;;;;;;;;;;;;;;;20.52;48.63;100742.90;2390404;73;50782;-79
2023/03/19 04:28:33;;;;;;;;;;;;;;;20.48;48.69;100747.84;2391200;74;50305;-79
2023/03/19 04:31:38;;;;;;;;;;;;;;;20.46;48.77;100753.92;2377314;74;50692;-79
2023/03/19 04:34:41;;;;;;;;;;;;;;;20.49;48.76;100750.84;2377449;74;50406;-79
2023/03/19 04:37:47;;;;;;;;;;;;;;;20.52;48.74;100754.47;2390590;73;22245;-79
2023/03/19 04:40:47;;;;;;;;;;;;;;;20.63;48.51;100762.07;2390660;74;22332;-79
2023/03/19 04:43:51;;;;;;;;;;;;;;;20.66;48.42;100760.33;2390552;73;51489;-79
2023/03/19 04:46:52;;;;;;;;;;;;;;;20.68;48.36;100761.98;2391152;74;51469;-77
2023/03/19 04:49:57;;;;;;;;;;;;;;;20.64;48.39;100760.20;2328213;74;52324;-78
2023/03/19 04:53:02;;;;;;;;;;;;;;;20.61;48.45;100756.05;2390283;73;50406;-78
2023/03/19 04:56:06;;;;;;;;;;;;;;;20.57;48.50;100757.97;2391451;73;22371;-78
2023/03/19 04:59:11;;;;;;;;;;;;;;;20.55;48.52;100767.59;2390881;74;22353;-79
2023/03/19 05:02:14;;;;;;;;;;;;;;;20.52;48.56;100766.58;2377784;74;24590;-78
2023/03/19 05:05:16;;;;;;;;;;;;;;;20.47;48.67;100759.59;2377878;74;22345;-78
2023/03/19 05:08:21;;;;;;;;;;;;;;;20.45;48.75;100755.78;2391056;74;50779;-78
2023/03/19 05:11:24;;;;;;;;;;;;;;;20.47;48.77;100755.56;2360203;74;22365;-78
2023/03/19 05:14:26;;;;;;;;;;;;;;;20.55;48.63;100753.29;2316233;75;22977;-78
2023/03/19 05:17:30;;;;;;;;;;;;;;;20.61;48.50;100760.08;2315289;75;51590;-78
2023/03/19 05:20:34;;;;;;;;;;;;;;;20.64;48.36;100747.59;2348906;75;22389;-78
2023/03/19 05:23:37;;;;;;;;;;;;;;;20.66;48.26;100741.51;2349109;75;50053;-78
2023/03/19 05:26:38;;;;;;;;;;;;;;;20.64;48.27;100723.91;2315256;75;51269;-78
2023/03/19 05:29:43;;;;;;;;;;;;;;;20.61;48.32;100726.48;2349811;75;22429;-78
2023/03/19 05:32:49;;;;;;;;;;;;;;;20.57;48.37;100711.75;2363604;74;50714;-78
2023/03/19 05:35:52;;;;;;;;;;;;;;;20.55;48.37;100717.86;2350023;75;50705;-78
2023/03/19 05:42:33;;;;;;;;;;;;;;;20.47;48.55;100713.08;2349036;75;22344;-79
2023/03/19 05:45:35;;;;;;;;;;;;;;;20.46;48.58;100716.29;2350634;74;50404;-78
2023/03/19 05:48:37;;;;;;;;;;;;;;;20.51;48.53;100719.74;2351241;75;50660;-79
2023/03/19 05:51:40;;;;;;;;;;;;;;;20.54;48.48;100716.17;2350030;75;50778;-79
2023/03/19 05:54:48;;;;;;;;;;;;;;;20.63;48.29;100723.09;2350113;75;51501;-78
2023/03/19 05:57:47;;;;;;;;;;;;;;;20.65;48.22;100721.04;2349253;75;22296;-78
2023/03/19 06:00:50;;;;;;;;;;;;;;;20.65;48.20;100722.88;2348087;74;50675;-79
2023/03/19 06:03:54;;;;;;;;;;;;;;;20.63;48.24;100724.43;2323415;75;51375;-78
2023/03/19 06:06:57;;;;;;;;;;;;;;;20.61;48.29;100722.44;2350905;75;22543;-78
2023/03/19 06:10:00;;;;;;;;;;;;;;;20.57;48.36;100726.53;2352277;75;50755;-77
2023/03/19 06:13:04;;;;;;;;;;;;;;;20.57;48.39;100725.70;2359320;74;50810;-78
2023/03/19 06:16:09;;;;;;;;;;;;;;;20.55;48.45;100729.09;2328598;73;52702;-77
2023/03/19 06:19:10;;;;;;;;;;;;;;;20.51;48.54;100726.46;2356195;74;51571;-77
2023/03/19 06:22:12;;;;;;;;;;;;;;;20.53;48.58;100733.31;2391357;74;50649;-77
2023/03/19 06:25:18;;;;;;;;;;;;;;;20.63;48.50;100726.30;2391148;74;51710;-77
2023/03/19 06:28:22;;;;;;;;;;;;;;;20.73;48.37;100732.66;2354031;74;52407;-77
2023/03/19 06:31:26;;;;;;;;;;;;;;;20.81;48.23;100739.25;2390761;74;23158;-77
2023/03/19 06:34:28;;;;;;;;;;;;;;;20.85;48.14;100739.98;2349783;75;50785;-77
2023/03/19 06:37:30;;;;;;;;;;;;;;;20.81;48.15;100741.95;2337440;75;50284;-77
2023/03/19 06:40:32;;;;;;;;;;;;;;;20.76;48.21;100748.42;2380802;74;50788;-77
2023/03/19 06:43:36;;;;;;;;;;;;;;;20.70;48.30;100758.59;2388921;74;51500;-77
2023/03/19 06:46:37;;;;;;;;;;;;;;;20.66;48.35;100751.44;2349749;75;50715;-77
2023/03/19 06:49:45;;;;;;;;;;;;;;;20.62;48.43;100759.05;2317032;74;50691;-77
2023/03/19 06:52:48;;;;;;;;;;;;;;;20.60;48.47;100770.53;2367405;74;51598;-77
2023/03/19 06:55:58;;;;;;;;;;;;;;;20.56;48.59;100796.13;2385645;74;50791;-77
2023/03/19 06:59:00;;;;;;;;;;;;;;;20.61;48.54;100813.85;2390007;74;51299;-77
2023/03/19 07:02:03;;;;;;;;;;;;;;;20.68;48.45;100819.79;2358305;74;50716;-77
2023/03/19 07:05:06;;;;;;;;;;;;;;;20.72;48.34;100819.22;2337787;75;51403;-77
2023/03/19 07:08:11;;;;;;;;;;;;;;;20.75;48.27;100839.52;2358975;74;50706;-77
2023/03/19 07:11:14;;;;;;;;;;;;;;;20.76;48.20;100859.50;2359629;74;22524;-77
2023/03/19 07:14:16;;;;;;;;;;;;;;;20.73;48.24;100881.41;2369839;73;23302;-77
2023/03/19 07:17:18;;;;;;;;;;;;;;;20.72;48.29;100889.13;2332694;74;52630;-77
2023/03/19 07:20:22;;;;;;;;;;;;;;;20.67;48.35;100879.47;2317959;75;50922;-77
2023/03/19 07:23:28;;;;;;;;;;;;;;;20.61;48.54;100881.58;2354790;74;52634;-78
2023/03/19 07:27:00;;;;;;;;;;;;;;;20.57;48.59;100889.17;2349754;75;50537;-77
2023/03/19 07:30:01;;;;;;;;;;;;;;;20.54;48.70;100896.77;2375367;73;23079;-77
2023/03/19 07:33:03;;;;;;;;;;;;;;;20.56;48.71;100863.84;2348922;74;51446;-77
2023/03/19 07:36:07;;;;;;;;;;;;;;;20.60;48.61;100851.19;2397796;73;51668;-76
2023/03/19 07:39:10;;;;;;;;;;;;;;;20.72;48.41;100858.73;2319445;73;50528;-78
2023/03/19 07:42:13;;;;;;;;;;;;;;;20.75;48.32;100841.69;2340862;74;51253;-77
2023/03/19 07:45:15;;;;;;;;;;;;;;;20.75;48.25;100829.58;2360569;73;50352;-77
2023/03/19 07:48:18;;;;;;;;;;;;;;;20.77;48.18;100821.34;2330021;74;50736;-77
2023/03/19 07:51:34;;;;;;;;;;;;;;;20.76;48.24;100815.65;2379884;74;51462;-77
2023/03/19 07:54:39;;;;;;;;;;;;;;;20.74;48.25;100805.59;2356367;74;22545;-77
2023/03/19 07:57:43;;;;;;;;;;;;;;;20.72;48.53;100808.47;2377464;74;22827;-77
2023/03/19 08:00:48;;;;;;;;;;;;;;;20.70;48.53;100809.68;2371759;74;22360;-78
2023/03/19 08:03:52;;;;;;;;;;;;;;;20.66;48.50;100814.11;2349661;75;51253;-77
2023/03/19 08:06:59;;;;;;;;;;;;;;;20.64;48.55;100818.84;2383432;73;22414;-77
2023/03/19 08:10:03;;;;;;;;;;;;;;;20.70;48.53;100826.64;2389917;73;51734;-78
2023/03/19 08:13:05;;;;;;;;;;;;;;;20.75;48.48;100826.06;2368847;74;51413;-78
2023/03/19 08:16:07;;;;;;;;;;;;;;;20.80;48.30;100813.70;2350222;75;50144;-77
2023/03/19 08:19:13;;;;;;;;;;;;;;;20.82;48.25;100813.00;2289147;75;52501;-77
2023/03/19 08:22:17;;;;;;;;;;;;;;;20.82;48.22;100817.55;2349677;75;50421;-77
2023/03/19 08:25:21;;;;;;;;;;;;;;;20.80;48.27;100830.36;2315468;75;51562;-77
2023/03/19 08:28:24;;;;;;;;;;;;;;;20.77;48.26;100837.47;2350162;74;51517;-77
2023/03/19 08:31:27;;;;;;;;;;;;;;;20.73;48.38;100850.48;2315168;75;52606;-77
2023/03/19 08:34:30;;;;;;;;;;;;;;;20.70;48.42;100862.94;2315927;75;50481;-77
2023/03/19 08:37:32;;;;;;;;;;;;;;;20.66;48.47;100895.28;2350320;75;50326;-77
2023/03/19 08:40:35;;;;;;;;;;;;;;;20.63;48.57;100918.53;2363485;74;50430;-77
2023/03/19 08:44:12;;;;;;;;;;;;;;;20.64;48.59;100914.28;2343216;74;22358;-77
2023/03/19 08:47:15;;;;;;;;;;;;;;;20.70;48.54;100922.61;2384927;74;23165;-77
2023/03/19 08:50:18;;;;;;;;;;;;;;;20.75;48.41;100929.08;2388657;74;50338;-77
2023/03/19 08:53:22;;;;;;;;;;;;;;;20.79;48.28;100937.63;2389062;74;51571;-77
2023/03/19 09:00:04;;;;;;;;;;;;;;;20.74;48.35;100927.95;2349211;75;22329;-77
2023/03/19 09:03:09;;;;;;;;;;;;;;;20.69;48.41;100914.23;2348527;74;50329;-77
2023/03/19 09:09:51;;;;;;;;;;;;;;;20.60;48.56;100886.13;2369913;74;23636;-77
2023/03/19 09:12:53;;;;;;;;;;;;;;;20.58;48.54;100854.57;2317657;75;50515;-78
2023/03/19 09:15:55;;;;;;;;;;;;;;;20.55;48.61;100829.91;2381572;74;51595;-77
2023/03/19 09:18:58;;;;;;;;;;;;;;;20.59;48.59;100823.13;2364944;73;50750;-77
2023/03/19 09:22:01;;;;;;;;;;;;;;;20.65;48.48;100815.14;2358973;73;50117;-77
2023/03/19 09:25:03;;;;;;;;;;;;;;;20.71;48.34;100806.81;2380289;74;50385;-77
2023/03/19 09:28:10;;;;;;;;;;;;;;;20.77;48.22;100826.20;2341193;74;51485;-77
2023/03/19 09:31:12;;;;;;;;;;;;;;;20.77;48.16;100810.58;2353050;73;50362;-77
2023/03/19 09:34:15;;;;;;;;;;;;;;;20.76;48.17;100815.13;2357806;75;51538;-77
2023/03/19 09:37:17;;;;;;;;;;;;;;;20.73;48.23;100818.70;2349959;74;50684;-77
2023/03/19 09:40:23;;;;;;;;;;;;;;;20.69;48.29;100830.88;2337943;74;51523;-77
2023/03/19 09:43:37;;;;;;;;;;;;;;;20.65;48.38;100820.52;2372849;74;50295;-76
2023/03/19 09:46:51;;;;;;;;;;;;;;;20.63;48.41;100815.84;2346947;74;22577;-76
2023/03/19 09:49:54;;;;;;;;;;;;;;;20.61;48.41;100813.02;2384339;74;50137;-77
2023/03/19 09:52:59;;;;;;;;;;;;;;;20.59;48.53;100815.06;2382464;74;51567;-77
2023/03/19 09:56:01;;;;;;;;;;;;;;;20.61;48.52;100813.85;2340270;74;50736;-76
2023/03/19 09:59:03;;;;;;;;;;;;;;;20.68;48.43;100814.41;2350434;73;51311;-77
2023/03/19 10:02:23;;;;;;;;;;;;;;;20.74;48.35;100815.83;2369475;73;51218;-77
2023/03/19 10:05:34;;;;;;;;;;;;;;;20.76;48.25;100819.69;2352545;74;51768;-76
2023/03/19 10:08:46;;;;;;;;;;;;;;;20.76;48.22;100818.34;2335634;74;22360;-76
2023/03/19 10:12:02;;;;;;;;;;;;;;;20.73;48.24;100822.25;2341641;74;51700;-76
2023/03/19 10:15:16;;;;;;;;;;;;;;;20.70;48.34;100823.95;2382415;74;50789;-76
2023/03/19 10:18:23;;;;;;;;;;;;;;;20.65;48.41;100828.59;2391081;74;51586;-77
2023/03/19 10:21:27;;;;;;;;;;;;;;;20.65;48.46;100821.01;2399525;74;49459;-77
2023/03/19 10:24:33;;;;;;;;;;;;;;;20.61;48.65;100829.16;2347774;73;52674;-78
2023/03/19 10:27:35;;;;;;;;;;;;;;;20.57;48.66;100827.34;2357287;75;50595;-77
2023/03/19 10:30:38;;;;;;;;;;;;;;;20.60;48.67;100829.67;2390509;74;51543;-77
2023/03/19 10:33:41;;;;;;;;;;;;;;;20.68;48.59;100835.92;2365880;74;22348;-77
2023/03/19 10:36:43;;;;;;;;;;;;;;;20.74;48.44;100827.94;2335866;74;52618;-77
2023/03/19 10:39:45;;;;;;;;;;;;;;;20.81;48.29;100825.31;2334648;74;51491;-77
2023/03/19 10:43:02;;;;;;;;;;;;;;;20.77;48.37;100829.41;2376150;74;50619;-78
2023/03/19 10:46:04;;;;;;;;;;;;;;;20.76;48.42;100815.65;2386712;73;50667;-77
2023/03/19 10:49:07;;;;;;;;;;;;;;;20.73;48.43;100824.94;2367165;74;51551;-77
2023/03/19 10:52:16;;;;;;;;;;;;;;;20.70;48.50;100821.78;2353756;75;50798;-77
2023/03/19 10:55:25;;;;;;;;;;;;;;;20.68;48.55;100817.10;2356031;74;50104;-77
2023/03/19 10:58:27;;;;;;;;;;;;;;;20.64;48.61;100820.70;2357937;74;50711;-77
2023/03/19 11:01:30;;;;;;;;;;;;;;;20.62;48.66;100817.37;2352292;75;51143;-78
2023/03/19 11:04:31;;;;;;;;;;;;;;;20.64;48.65;100824.22;2358082;75;50314;-77
2023/03/19 11:07:35;;;;;;;;;;;;;;;20.68;48.68;100825.17;2367300;74;51552;-77
2023/03/19 11:10:37;;;;;;;;;;;;;;;20.74;48.58;100824.42;2357192;73;50779;-78
2023/03/19 11:13:45;;;;;;;;;;;;;;;20.77;48.50;100825.37;2357955;75;51587;-77
2023/03/19 11:16:55;;;;;;;;;;;;;;;20.81;48.40;100823.97;2373843;74;23171;-77
2023/03/19 11:20:00;;;;;;;;;;;;;;;20.77;48.47;100830.75;2354824;75;51518;-77
2023/03/19 11:23:08;;;;;;;;;;;;;;;20.74;48.51;100831.97;2358160;75;51568;-78
2023/03/19 11:26:11;;;;;;;;;;;;;;;20.73;48.60;100822.25;2366692;73;22209;-78
2023/03/19 11:29:13;;;;;;;;;;;;;;;20.72;48.58;100825.11;2370176;74;23249;-77
2023/03/19 11:32:32;;;;;;;;;;;;;;;20.68;48.68;100819.30;2376571;74;50113;-77
2023/03/19 11:35:42;;;;;;;;;;;;;;;20.65;48.72;100819.66;2367237;74;51695;-78
2023/03/19 11:39:04;;;;;;;;;;;;;;;20.65;48.81;100819.66;2398849;74;21952;-77
2023/03/19 11:42:23;;;;;;;;;;;;;;;20.69;48.82;100817.44;2358063;75;22359;-77
2023/03/19 11:45:42;;;;;;;;;;;;;;;20.73;48.79;100810.63;2358028;75;50694;-78
2023/03/19 11:49:01;;;;;;;;;;;;;;;20.77;48.66;100808.72;2357563;75;51522;-76
2023/03/19 11:52:08;;;;;;;;;;;;;;;20.77;48.61;100808.72;2356203;75;51521;-78
2023/03/19 11:55:13;;;;;;;;;;;;;;;20.76;48.66;100809.75;2369793;74;22565;-77
2023/03/19 11:58:16;;;;;;;;;;;;;;;20.73;48.70;100803.91;2374214;74;50303;-77
2023/03/19 12:01:40;;;;;;;;;;;;;;;20.71;48.79;100814.05;2357974;75;51555;-76
2023/03/19 12:04:44;;;;;;;;;;;;;;;20.68;48.83;100807.20;2324882;75;52582;-75
2023/03/19 12:08:08;;;;;;;;;;;;;;;20.63;49.01;100805.09;2357831;75;50320;-75
2023/03/19 12:11:17;;;;;;;;;;;;;;;20.62;49.20;100803.92;2382563;74;22529;-77
2023/03/19 12:14:35;;;;;;;;;;;;;;;20.61;49.29;100805.78;2357807;74;52153;-77
2023/03/19 12:17:47;;;;;;;;;;;;;;;20.69;49.11;100809.38;2358076;75;23164;-76
2023/03/19 12:21:09;;;;;;;;;;;;;;;20.76;48.88;100799.00;2357006;75;50806;-77
2023/03/19 12:24:31;;;;;;;;;;;;;;;20.76;48.83;100801.69;2357851;75;50833;-77
2023/03/19 12:31:12;;;;;;;;;;;;;;;20.74;48.82;100798.87;2370399;74;24308;-77
2023/03/19 12:34:20;;;;;;;;;;;;;;;20.70;48.87;100800.27;2399343;74;51461;-78
2023/03/19 12:37:31;;;;;;;;;;;;;;;20.66;48.89;100795.28;2399709;74;22452;-77
2023/03/19 12:40:41;;;;;;;;;;;;;;;20.64;48.90;100790.61;2398739;74;23137;-77
2023/03/19 12:43:48;;;;;;;;;;;;;;;20.63;48.93;100798.36;2366109;74;52664;-76
2023/03/19 12:46:56;;;;;;;;;;;;;;;20.65;48.99;100784.22;2399861;74;50791;-77
2023/03/19 12:50:00;;;;;;;;;;;;;;;20.71;48.86;100790.67;2387813;73;22436;-77
2023/03/19 12:53:04;;;;;;;;;;;;;;;20.78;48.74;100789.37;2327075;75;51520;-76
2023/03/19 12:56:12;;;;;;;;;;;;;;;20.82;48.60;100786.11;2359663;75;21938;-77
2023/03/19 12:59:15;;;;;;;;;;;;;;;20.82;48.58;100787.45;2361207;74;50502;-77
2023/03/19 13:02:47;;;;;;;;;;;;;;;20.84;48.55;100785.92;2379283;74;50795;-77
2023/03/19 13:05:52;;;;;;;;;;;;;;;20.81;48.57;100783.63;2389713;74;22458;-77
2023/03/19 13:08:57;;;;;;;;;;;;;;;20.76;48.69;100788.76;2393873;74;50676;-77
2023/03/19 13:12:04;;;;;;;;;;;;;;;20.74;48.74;100788.11;2366943;73;50781;-77
2023/03/19 13:15:19;;;;;;;;;;;;;;;20.71;48.79;100792.54;2364195;73;22309;-77
2023/03/19 13:18:42;;;;;;;;;;;;;;;20.68;48.85;100786.19;2384056;74;51619;-77
2023/03/19 13:21:44;;;;;;;;;;;;;;;20.69;48.92;100790.55;2388037;73;22321;-77
2023/03/19 13:24:47;;;;;;;;;;;;;;;20.76;48.84;100790.11;2393203;74;52377;-77
2023/03/19 13:27:57;;;;;;;;;;;;;;;20.79;48.78;100793.23;2382678;73;50787;-76
2023/03/19 13:31:03;;;;;;;;;;;;;;;20.82;48.69;100787.97;2358650;73;22659;-76
2023/03/19 13:34:05;;;;;;;;;;;;;;;20.81;48.67;100778.25;2379469;74;51520;-77
2023/03/19 13:37:13;;;;;;;;;;;;;;;20.80;48.69;100783.30;2356127;74;50609;-77
2023/03/19 13:40:34;;;;;;;;;;;;;;;20.78;48.72;100775.92;2384544;74;50107;-77
2023/03/19 13:43:37;;;;;;;;;;;;;;;20.76;48.77;100779.34;2385010;74;50327;-76
2023/03/19 13:46:40;;;;;;;;;;;;;;;20.73;48.82;100768.47;2359625;73;51245;-77
2023/03/19 13:49:46;;;;;;;;;;;;;;;20.70;48.88;100770.69;2350880;74;51597;-76
2023/03/19 14:06:47;;;;;;;;;;;;;;;20.83;48.72;100770.30;2385942;74;22388;-77
2023/03/19 14:10:03;;;;;;;;;;;;;;;20.81;48.72;100764.80;2394359;73;22391;-76
2023/03/19 14:13:08;;;;;;;;;;;;;;;20.78;48.79;100765.17;2394736;74;21766;-77
2023/03/19 14:16:16;;;;;;;;;;;;;;;20.76;48.82;100761.34;2396509;73;51554;-77
2023/03/19 14:19:23;;;;;;;;;;;;;;;20.73;48.89;100759.55;2348901;74;52437;-77
2023/03/19 14:26:13;;;;;;;;;;;;;;;20.73;48.85;100752.82;2377721;74;22443;-78
2023/03/19 14:29:18;;;;;;;;;;;;;;;20.73;48.89;100748.78;2375952;74;22335;-78
2023/03/19 14:36:20;;;;;;;;;;;;;;;20.90;48.56;100751.52;2373911;74;24381;-78
2023/03/19 14:39:23;;;;;;;;;;;;;;;20.93;48.47;100754.33;2357943;73;50795;-78
2023/03/19 14:42:25;;;;;;;;;;;;;;;20.92;48.48;100758.05;2397987;73;51524;-78
2023/03/19 14:45:49;;;;;;;;;;;;;;;20.89;48.52;100752.55;2344612;74;51261;-79
2023/03/19 14:49:09;;;;;;;;;;;;;;;20.88;48.52;100752.21;2387785;73;22731;-78
2023/03/19 14:52:25;;;;;;;;;;;;;;;20.84;48.57;100745.58;2362882;74;50682;-78
2023/03/19 14:55:40;;;;;;;;;;;;;;;20.81;48.60;100742.77;2388450;74;51494;-79
2023/03/19 14:58:48;;;;;;;;;;;;;;;20.81;48.62;100745.98;2397494;74;23041;-78
2023/03/19 15:01:55;;;;;;;;;;;;;;;20.82;48.66;100739.56;2366390;74;50314;-78
2023/03/19 15:04:57;;;;;;;;;;;;;;;20.81;48.72;100748.15;2398236;73;22987;-79
2023/03/19 15:08:03;;;;;;;;;;;;;;;20.90;48.54;100744.78;2365751;74;52361;-79
2023/03/19 15:11:06;;;;;;;;;;;;;;;20.93;48.46;100747.59;2360331;73;52402;-79
2023/03/19 15:14:10;;;;;;;;;;;;;;;20.91;48.50;100749.16;2399734;74;50680;-78
2023/03/19 15:17:24;;;;;;;;;;;;;;;20.84;48.59;100749.62;2326731;74;52473;-77
2023/03/19 15:20:28;;;;;;;;;;;;;;;20.78;48.71;100746.34;2310111;74;50441;-78
2023/03/19 15:23:31;;;;;;;;;;;;;;;20.76;48.75;100751.94;2311822;74;51760;-78
2023/03/19 15:26:38;;;;;;;;;;;;;;;20.72;48.78;100744.45;2308955;77;50840;-78
2023/03/19 15:29:41;;;;;;;;;;;;;;;20.71;48.82;100745.48;2322369;74;50503;-78
2023/03/19 15:32:45;;;;;;;;;;;;;;;20.68;48.95;100744.02;2308961;75;50785;-78
2023/03/19 15:39:28;;;;;;;;;;;;;;;20.80;48.78;100744.30;2316111;74;22620;-78
2023/03/19 15:42:33;;;;;;;;;;;;;;;20.89;48.54;100753.89;2323138;75;50817;-79
2023/03/19 15:45:35;;;;;;;;;;;;;;;20.88;48.53;100746.84;2312331;75;22684;-80
2023/03/19 15:48:41;;;;;;;;;;;;;;;20.82;48.58;100743.59;2322992;75;50677;-79
2023/03/19 15:51:44;;;;;;;;;;;;;;;20.81;48.62;100744.63;2336019;75;51486;-79
2023/03/19 15:54:47;;;;;;;;;;;;;;;20.76;48.71;100748.42;2344327;75;50263;-80
2023/03/19 16:01:26;;;;;;;;;;;;;;;20.75;48.71;100745.39;2387665;73;21729;-78
2023/03/19 16:08:23;;;;;;;;;;;;;;;20.72;48.78;100747.14;2391035;73;24444;-78
2023/03/19 16:11:38;;;;;;;;;;;;;;;20.77;48.75;100750.07;2338226;74;50670;-78
2023/03/19 16:14:41;;;;;;;;;;;;;;;20.80;48.68;100752.37;2287337;77;51778;-78
2023/03/19 16:21:27;;;;;;;;;;;;;;;20.79;48.64;100758.27;2299994;76;23288;-79
2023/03/19 16:24:35;;;;;;;;;;;;;;;20.77;48.68;100755.45;2297035;76;22913;-79
2023/03/19 16:27:39;;;;;;;;;;;;;;;20.76;48.69;100763.21;2298774;75;22452;-79
2023/03/19 16:30:42;;;;;;;;;;;;;;;20.72;48.78;100765.44;2259408;77;51907;-78
2023/03/19 16:33:47;;;;;;;;;;;;;;;20.69;48.84;100765.01;2270131;75;50278;-79
2023/03/19 16:36:50;;;;;;;;;;;;;;;20.64;48.93;100767.75;2281054;76;22354;-78
2023/03/19 16:39:57;;;;;;;;;;;;;;;20.65;48.93;100765.89;2292538;76;22312;-78
2023/03/19 16:43:00;;;;;;;;;;;;;;;20.72;48.89;100773.51;2269535;76;50180;-79
2023/03/19 16:46:05;;;;;;;;;;;;;;;20.78;48.70;100767.38;2298817;76;51589;-79
2023/03/19 16:49:10;;;;;;;;;;;;;;;20.81;48.62;100770.19;2300318;74;50870;-79
2023/03/19 16:52:14;;;;;;;;;;;;;;;20.81;48.60;100775.56;2355927;73;50423;-79